createdAt,value
2024-02-29T00:01:44.722Z,9.90
2024-02-29T00:04:13.414Z,9.80
2024-02-29T00:06:43.164Z,9.80
2024-02-29T00:09:11.415Z,9.80
2024-02-29T00:11:39.736Z,9.80
2024-02-29T00:14:08.058Z,9.80
2024-02-29T00:16:37.617Z,9.80
2024-02-29T00:19:06.032Z,9.80
2024-02-29T00:21:35.522Z,9.80
2024-02-29T00:24:03.785Z,9.80
2024-02-29T00:26:31.961Z,9.80
2024-02-29T00:29:02.361Z,9.80
2024-02-29T00:31:30.722Z,9.80
2024-02-29T00:34:00.508Z,9.80
2024-02-29T00:36:28.743Z,9.80
2024-02-29T00:39:05.973Z,9.80
2024-02-29T00:41:40.148Z,9.80
2024-02-29T00:44:08.391Z,9.70
2024-02-29T00:46:39.847Z,9.80
2024-02-29T00:49:09.952Z,9.70
2024-02-29T00:51:38.598Z,9.70
2024-02-29T00:54:06.845Z,9.70
2024-02-29T00:56:35.200Z,9.70
2024-02-29T00:59:03.315Z,9.70
2024-02-29T01:01:31.606Z,9.70
2024-02-29T01:04:00.134Z,9.70
2024-02-29T01:06:29.919Z,9.70
2024-02-29T01:08:58.481Z,9.70
2024-02-29T01:11:27.017Z,9.70
2024-02-29T01:13:55.271Z,9.70
2024-02-29T01:16:23.671Z,9.70
2024-02-29T01:18:51.959Z,9.70
2024-02-29T01:21:20.242Z,9.70
2024-02-29T01:23:49.752Z,9.70
2024-02-29T01:26:18.126Z,9.70
2024-02-29T01:28:46.400Z,9.70
2024-02-29T01:31:15.576Z,9.70
2024-02-29T01:33:44.064Z,9.70
2024-02-29T01:36:12.254Z,9.60
2024-02-29T01:38:40.684Z,9.60
2024-02-29T01:41:10.499Z,9.70
2024-02-29T01:43:38.957Z,9.60
2024-02-29T01:46:13.594Z,9.60
2024-02-29T01:48:43.464Z,9.70
2024-02-29T01:51:12.951Z,9.60
2024-02-29T01:53:41.368Z,9.60
2024-02-29T01:56:13.823Z,9.60
2024-02-29T01:58:43.203Z,9.60
2024-02-29T02:01:12.205Z,9.60
2024-02-29T02:03:43.006Z,9.60
2024-02-29T02:06:11.537Z,9.60
2024-02-29T02:08:39.928Z,9.60
2024-02-29T02:11:08.416Z,9.60
2024-02-29T02:13:38.168Z,9.60
2024-02-29T02:16:06.919Z,9.60
2024-02-29T02:18:35.258Z,9.60
2024-02-29T02:21:06.345Z,9.60
2024-02-29T02:23:34.642Z,9.60
2024-02-29T02:26:02.930Z,9.60
2024-02-29T02:28:31.148Z,9.60
2024-02-29T02:31:00.020Z,9.60
2024-02-29T02:33:28.174Z,9.60
2024-02-29T02:35:57.040Z,9.60
2024-02-29T02:38:26.620Z,9.60
2024-02-29T02:40:54.802Z,9.50
2024-02-29T02:43:23.379Z,9.60
2024-02-29T02:45:51.847Z,9.50
2024-02-29T02:48:20.322Z,9.50
2024-02-29T02:50:48.927Z,9.50
2024-02-29T02:53:17.141Z,9.50
2024-02-29T02:55:46.798Z,9.50
2024-02-29T02:58:15.026Z,9.50
2024-02-29T03:00:43.351Z,9.50
2024-02-29T03:03:11.674Z,9.50
2024-02-29T03:05:39.893Z,9.50
2024-02-29T03:08:09.042Z,9.50
2024-02-29T03:10:37.161Z,9.50
2024-02-29T03:13:07.384Z,9.50
2024-02-29T03:15:35.799Z,9.50
2024-02-29T03:18:04.193Z,9.50
2024-02-29T03:20:32.837Z,9.50
2024-02-29T03:23:01.002Z,9.50
2024-02-29T03:25:29.192Z,9.50
2024-02-29T03:27:57.534Z,9.50
2024-02-29T03:30:27.166Z,9.50
2024-02-29T03:32:55.773Z,9.50
2024-02-29T03:35:24.124Z,9.50
2024-02-29T03:37:52.386Z,9.50
2024-02-29T03:40:21.059Z,9.50
2024-02-29T03:42:49.384Z,9.50
2024-02-29T03:45:17.798Z,9.50
2024-02-29T03:47:47.632Z,9.50
2024-02-29T03:50:16.022Z,9.50
2024-02-29T03:52:44.265Z,9.50
2024-02-29T03:55:12.902Z,9.50
2024-02-29T03:57:41.977Z,9.50
2024-02-29T04:00:13.045Z,9.50
2024-02-29T04:02:41.810Z,9.50
2024-02-29T04:05:11.649Z,9.50
2024-02-29T04:07:41.855Z,9.50
2024-02-29T04:10:11.484Z,9.50
2024-02-29T04:12:39.823Z,9.50
2024-02-29T04:15:08.699Z,9.50
2024-02-29T04:17:36.813Z,9.50
2024-02-29T04:20:06.955Z,9.50
2024-02-29T04:22:36.652Z,9.50
2024-02-29T04:25:06.493Z,9.50
2024-02-29T04:27:34.731Z,9.50
2024-02-29T04:30:03.127Z,9.50
2024-02-29T04:32:31.561Z,9.50
2024-02-29T04:34:59.807Z,9.50
2024-02-29T04:37:28.032Z,9.40
2024-02-29T04:39:57.740Z,9.40
2024-02-29T04:42:26.017Z,9.40
2024-02-29T04:44:54.270Z,9.40
2024-02-29T04:47:23.334Z,9.40
2024-02-29T04:49:51.838Z,9.40
2024-02-29T04:52:20.356Z,9.40
2024-02-29T04:54:48.624Z,9.50
2024-02-29T04:57:18.282Z,9.40
2024-02-29T04:59:46.542Z,9.40
2024-02-29T05:02:14.926Z,9.40
2024-02-29T05:04:43.164Z,9.40
2024-02-29T05:07:12.107Z,9.40
2024-02-29T05:09:40.680Z,9.40
2024-02-29T05:12:09.335Z,9.30
2024-02-29T05:14:39.015Z,9.40
2024-02-29T05:17:07.253Z,9.40
2024-02-29T05:19:36.202Z,9.40
2024-02-29T05:22:04.629Z,9.40
2024-02-29T05:24:32.820Z,9.40
2024-02-29T05:27:01.314Z,9.40
2024-02-29T05:29:30.224Z,9.40
2024-02-29T05:31:59.888Z,9.40
2024-02-29T05:34:28.060Z,9.40
2024-02-29T05:36:56.422Z,9.40
2024-02-29T05:39:25.065Z,9.40
2024-02-29T05:41:57.189Z,9.40
2024-02-29T05:44:25.646Z,9.40
2024-02-29T05:46:53.764Z,9.40
2024-02-29T05:49:23.468Z,9.40
2024-02-29T05:51:51.697Z,9.40
2024-02-29T05:54:20.573Z,9.40
2024-02-29T05:56:48.748Z,9.40
2024-02-29T05:59:17.037Z,9.40
2024-02-29T06:01:45.416Z,9.40
2024-02-29T06:04:13.784Z,9.30
2024-02-29T06:06:43.566Z,9.30
2024-02-29T06:09:14.220Z,9.30
2024-02-29T06:11:42.518Z,9.30
2024-02-29T06:14:11.957Z,9.40
2024-02-29T06:16:40.183Z,9.30
2024-02-29T06:19:08.510Z,9.40
2024-02-29T06:21:36.691Z,9.30
2024-02-29T06:24:06.399Z,9.40
2024-02-29T06:26:36.000Z,9.40
2024-02-29T06:29:04.279Z,9.40
2024-02-29T06:31:32.703Z,9.40
2024-02-29T06:34:01.088Z,9.40
2024-02-29T06:36:29.516Z,9.40
2024-02-29T06:38:57.733Z,9.40
2024-02-29T06:41:28.032Z,9.40
2024-02-29T06:43:57.263Z,9.40
2024-02-29T06:46:25.533Z,9.40
2024-02-29T06:48:53.990Z,9.50
2024-02-29T06:51:22.469Z,9.50
2024-02-29T06:53:50.597Z,9.50
2024-02-29T06:56:19.008Z,9.50
2024-02-29T06:58:48.654Z,9.50
2024-02-29T07:01:21.041Z,9.50
2024-02-29T07:03:49.938Z,9.60
2024-02-29T07:06:18.175Z,9.60
2024-02-29T07:08:46.969Z,9.60
2024-02-29T07:11:15.312Z,9.60
2024-02-29T07:13:43.610Z,9.60
2024-02-29T07:16:13.287Z,9.70
2024-02-29T07:18:41.694Z,9.70
2024-02-29T07:21:09.743Z,9.70
2024-02-29T07:23:38.822Z,9.80
2024-02-29T07:26:07.039Z,9.80
2024-02-29T07:28:35.096Z,9.90
2024-02-29T07:31:03.806Z,9.90
2024-02-29T07:33:36.225Z,9.90
2024-02-29T07:36:04.784Z,10.00
2024-02-29T07:38:32.992Z,10.00
2024-02-29T07:41:01.117Z,10.00
2024-02-29T07:43:29.280Z,10.10
2024-02-29T07:45:57.646Z,10.10
2024-02-29T07:48:28.207Z,10.10
2024-02-29T07:50:57.762Z,10.10
2024-02-29T07:53:26.057Z,10.20
2024-02-29T07:55:54.220Z,10.20
2024-02-29T07:58:22.388Z,10.20
2024-02-29T08:00:50.569Z,10.30
2024-02-29T08:03:18.948Z,10.30
2024-02-29T08:05:48.346Z,10.30
2024-02-29T08:08:17.927Z,10.30
2024-02-29T08:10:46.239Z,10.40
2024-02-29T08:13:14.608Z,10.40
2024-02-29T08:15:42.830Z,10.40
2024-02-29T08:18:12.116Z,10.40
2024-02-29T08:20:40.253Z,10.50
2024-02-29T08:23:08.642Z,10.50
2024-02-29T08:25:38.292Z,10.50
2024-02-29T08:28:07.662Z,10.50
2024-02-29T08:30:35.946Z,10.60
2024-02-29T08:33:04.067Z,10.60
2024-02-29T08:35:32.236Z,10.60
2024-02-29T08:38:00.396Z,10.60
2024-02-29T08:40:28.532Z,10.70
2024-02-29T08:42:58.321Z,10.70
2024-02-29T08:45:26.584Z,10.70
2024-02-29T08:47:54.768Z,10.70
2024-02-29T08:50:23.478Z,10.80
2024-02-29T08:52:51.657Z,10.80
2024-02-29T08:55:21.285Z,10.80
2024-02-29T08:57:49.721Z,10.90
2024-02-29T09:00:20.161Z,10.90
2024-02-29T09:02:48.331Z,11.00
2024-02-29T09:05:16.689Z,11.00
2024-02-29T09:07:44.862Z,11.00
2024-02-29T09:10:13.941Z,11.10
2024-02-29T09:12:42.142Z,11.20
2024-02-29T09:15:11.124Z,11.20
2024-02-29T09:17:40.694Z,11.30
2024-02-29T09:20:12.085Z,11.40
2024-02-29T09:22:41.664Z,11.40
2024-02-29T09:25:11.051Z,11.50
2024-02-29T09:27:39.564Z,11.60
2024-02-29T09:30:08.678Z,11.60
2024-02-29T09:32:36.864Z,11.70
2024-02-29T09:35:06.864Z,11.80
2024-02-29T09:37:35.127Z,11.80
2024-02-29T09:40:05.548Z,11.80
2024-02-29T09:42:34.136Z,11.90
2024-02-29T09:45:03.290Z,11.90
2024-02-29T09:47:33.349Z,11.90
2024-02-29T09:50:05.265Z,11.90
2024-02-29T09:52:38.628Z,12.00
2024-02-29T09:55:09.298Z,12.00
2024-02-29T09:57:37.566Z,12.00
2024-02-29T10:00:07.916Z,12.00
2024-02-29T10:02:37.073Z,12.10
2024-02-29T10:05:06.414Z,12.10
2024-02-29T10:07:45.952Z,12.10
2024-02-29T10:10:14.792Z,12.10
2024-02-29T10:12:44.581Z,12.10
2024-02-29T10:15:12.930Z,12.10
2024-02-29T10:17:41.470Z,12.10
2024-02-29T10:20:12.698Z,12.10
2024-02-29T10:22:47.692Z,12.10
2024-02-29T10:25:17.766Z,12.10
2024-02-29T10:27:46.370Z,12.10
2024-02-29T10:30:16.154Z,12.10
2024-02-29T10:32:44.820Z,12.10
2024-02-29T10:35:20.203Z,12.10
2024-02-29T10:37:50.280Z,12.10
2024-02-29T10:40:18.574Z,12.10
2024-02-29T10:42:51.932Z,12.10
2024-02-29T10:45:23.157Z,12.20
2024-02-29T10:47:58.080Z,12.20
2024-02-29T10:50:27.863Z,12.20
2024-02-29T10:53:07.117Z,12.30
2024-02-29T10:55:42.131Z,12.30
2024-02-29T10:58:19.122Z,12.30
2024-02-29T11:00:47.386Z,12.40
2024-02-29T11:03:16.563Z,12.40
2024-02-29T11:05:46.928Z,12.40
2024-02-29T11:08:17.484Z,12.40
2024-02-29T11:10:48.708Z,12.50
2024-02-29T11:13:20.689Z,12.50
2024-02-29T11:15:52.208Z,12.60
2024-02-29T11:18:24.379Z,12.60
2024-02-29T11:21:05.145Z,12.60
2024-02-29T11:23:37.682Z,12.70
2024-02-29T11:26:11.796Z,12.70
2024-02-29T11:28:41.750Z,12.80
2024-02-29T11:31:12.905Z,12.80
2024-02-29T11:33:41.151Z,12.80
2024-02-29T11:36:11.050Z,12.90
2024-02-29T11:38:41.238Z,13.00
2024-02-29T11:41:19.878Z,13.00
2024-02-29T11:43:50.283Z,13.00
2024-02-29T11:46:18.763Z,13.10
2024-02-29T11:48:49.947Z,13.10
2024-02-29T11:51:18.280Z,13.20
2024-02-29T11:53:48.007Z,13.20
2024-02-29T11:56:17.167Z,13.30
2024-02-29T11:58:46.873Z,13.30
2024-02-29T12:01:15.970Z,13.40
2024-02-29T12:03:45.250Z,13.40
2024-02-29T12:06:13.469Z,13.50
2024-02-29T12:08:41.690Z,13.60
2024-02-29T12:11:11.417Z,13.70
2024-02-29T12:13:40.268Z,13.80
2024-02-29T12:16:08.817Z,13.80
2024-02-29T12:18:37.409Z,13.90
2024-02-29T12:21:06.467Z,13.90
2024-02-29T12:23:33.806Z,13.90
2024-02-29T12:26:14.004Z,14.00
2024-02-29T12:28:42.584Z,14.00
2024-02-29T12:31:11.577Z,14.00
2024-02-29T12:33:40.514Z,14.00
2024-02-29T12:36:09.364Z,14.10
2024-02-29T12:38:37.664Z,14.20
2024-02-29T12:41:07.767Z,14.30
2024-02-29T12:43:39.944Z,14.50
2024-02-29T13:38:20.284Z,16.30
2024-02-29T13:40:48.787Z,16.60
2024-02-29T13:43:17.522Z,16.60
2024-02-29T13:45:45.789Z,16.60
2024-02-29T13:48:14.612Z,16.60
2024-02-29T13:50:44.093Z,16.60
2024-02-29T13:53:13.750Z,16.70
2024-02-29T13:55:43.227Z,16.70
2024-02-29T14:00:41.919Z,16.80
2024-02-29T14:05:38.507Z,16.80
2024-02-29T14:10:36.848Z,16.80
2024-02-29T14:13:05.138Z,16.80
2024-02-29T14:15:33.275Z,16.80
2024-02-29T14:18:01.516Z,16.80
2024-02-29T14:20:29.559Z,16.80
2024-02-29T14:22:57.716Z,16.70
2024-02-29T14:27:55.857Z,16.70
2024-02-29T14:30:23.945Z,16.60
2024-02-29T14:32:52.089Z,16.60
2024-02-29T14:35:20.315Z,16.60
2024-02-29T14:37:48.483Z,16.60
2024-02-29T14:40:16.733Z,16.50
2024-02-29T14:42:44.978Z,16.50
2024-02-29T14:45:14.548Z,16.50
2024-02-29T14:47:43.545Z,16.40
2024-02-29T14:50:12.077Z,16.40
2024-02-29T14:52:43.439Z,16.30
2024-02-29T14:55:11.825Z,16.30
2024-02-29T14:57:40.176Z,16.30
2024-02-29T15:00:16.520Z,16.00
2024-02-29T15:02:46.327Z,16.20
2024-02-29T15:05:17.561Z,16.10
2024-02-29T15:07:45.798Z,16.10
2024-02-29T15:10:14.541Z,16.10
2024-02-29T15:12:43.154Z,16.00
2024-02-29T15:15:12.158Z,16.00
2024-02-29T15:17:42.070Z,15.90
2024-02-29T15:20:14.374Z,15.80
2024-02-29T15:22:43.839Z,15.80
2024-02-29T15:25:17.357Z,15.70
2024-02-29T15:27:47.603Z,15.70
2024-02-29T15:30:16.242Z,15.70
2024-02-29T15:32:44.816Z,15.60
2024-02-29T15:35:15.552Z,15.50
2024-02-29T15:37:43.904Z,15.50
2024-02-29T15:40:15.656Z,15.50
2024-02-29T15:42:44.552Z,15.40
2024-02-29T15:45:14.001Z,15.30
2024-02-29T15:47:42.517Z,15.20
2024-02-29T15:50:11.151Z,15.10
2024-02-29T15:52:41.098Z,15.20
2024-02-29T15:55:09.959Z,15.10
2024-02-29T15:57:38.673Z,14.90
2024-02-29T16:00:08.373Z,14.90
2024-02-29T16:02:36.753Z,14.80
2024-02-29T16:05:06.108Z,14.70
2024-02-29T16:07:34.216Z,14.70
2024-02-29T16:10:04.921Z,14.60
2024-02-29T16:12:33.396Z,14.50
2024-02-29T16:15:01.706Z,14.40
2024-02-29T16:17:30.035Z,14.30
2024-02-29T16:19:58.374Z,14.20
2024-02-29T17:17:33.178Z,12.40
2024-02-29T17:20:01.293Z,12.30
2024-02-29T17:22:29.541Z,12.20
2024-02-29T17:24:58.072Z,12.10
2024-02-29T17:27:26.903Z,12.00
2024-02-29T17:29:56.556Z,12.00
2024-02-29T17:32:26.359Z,11.90
2024-02-29T17:34:54.586Z,11.80
2024-02-29T17:37:24.276Z,11.70
2024-02-29T17:39:53.497Z,11.60
2024-02-29T17:42:21.975Z,11.60
2024-02-29T17:44:51.785Z,11.50
2024-02-29T17:47:21.406Z,11.40
2024-02-29T17:49:49.445Z,11.30
2024-02-29T17:52:17.678Z,11.30
2024-02-29T17:54:46.032Z,11.20
2024-02-29T17:57:14.690Z,11.20
2024-02-29T17:59:43.029Z,11.00
2024-02-29T18:02:11.375Z,11.00
2024-02-29T18:04:41.326Z,10.90
2024-02-29T18:07:09.545Z,10.90
2024-02-29T18:09:39.386Z,10.80
2024-02-29T18:12:07.796Z,10.70
2024-02-29T18:14:36.021Z,10.70
2024-02-29T18:17:04.390Z,10.60
2024-02-29T18:19:32.620Z,10.50
2024-02-29T18:22:02.000Z,10.40
2024-02-29T18:24:31.294Z,10.40
2024-02-29T18:26:59.457Z,10.30
2024-02-29T18:29:28.673Z,10.20
2024-02-29T18:31:56.872Z,10.20
2024-02-29T18:34:25.150Z,10.10
2024-02-29T18:36:53.484Z,10.00
2024-02-29T18:39:31.851Z,10.00
2024-02-29T18:42:00.031Z,9.90
2024-02-29T18:44:28.288Z,9.80
2024-02-29T18:46:56.563Z,9.80
2024-02-29T18:49:25.021Z,9.70
2024-02-29T18:51:53.136Z,9.60
2024-02-29T18:54:22.771Z,9.60
2024-02-29T18:56:50.995Z,9.50
2024-02-29T18:59:20.426Z,9.50
2024-02-29T19:01:50.833Z,9.40
2024-02-29T19:04:19.315Z,9.30
2024-02-29T19:06:49.899Z,9.30
2024-02-29T19:09:18.082Z,9.20
2024-02-29T19:11:47.710Z,9.20
2024-02-29T19:14:15.975Z,9.10
2024-02-29T19:16:45.894Z,9.10
2024-02-29T19:19:14.537Z,9.00
2024-02-29T19:21:43.081Z,9.00
2024-02-29T19:24:12.459Z,8.90
2024-02-29T19:26:40.763Z,8.80
2024-02-29T19:29:10.593Z,8.80
2024-02-29T19:31:38.979Z,8.70
2024-02-29T19:34:07.581Z,8.70
2024-02-29T19:36:35.877Z,8.60
2024-02-29T19:39:03.954Z,8.50
2024-02-29T19:41:32.037Z,8.50
2024-02-29T19:44:00.262Z,8.40
2024-02-29T19:46:29.969Z,8.40
2024-02-29T19:48:58.050Z,8.30
2024-02-29T19:51:26.226Z,8.30
2024-02-29T19:53:54.410Z,8.20
2024-02-29T19:56:22.603Z,8.20
2024-02-29T19:58:50.713Z,8.20
2024-02-29T20:01:18.989Z,8.10
2024-02-29T20:03:48.627Z,8.10
2024-02-29T20:06:16.866Z,8.00
2024-02-29T20:08:44.897Z,8.00
2024-02-29T20:11:13.042Z,8.00
2024-02-29T20:13:41.244Z,7.90
2024-02-29T20:16:09.488Z,7.90
2024-02-29T20:18:37.757Z,7.80
2024-02-29T20:21:07.705Z,7.80
2024-02-29T20:23:36.035Z,7.70
2024-02-29T20:26:04.192Z,7.70
2024-02-29T20:28:32.910Z,7.70
2024-02-29T20:31:02.521Z,7.60
2024-02-29T20:33:30.841Z,7.60
2024-02-29T20:35:59.027Z,7.60
2024-02-29T20:38:28.513Z,7.50
2024-02-29T20:40:56.639Z,7.50
2024-02-29T20:43:25.030Z,7.50
2024-02-29T20:45:53.761Z,7.40
2024-02-29T20:48:22.020Z,7.40
2024-02-29T20:50:50.351Z,7.40
2024-02-29T20:53:18.467Z,7.30
2024-02-29T20:55:48.038Z,7.30
2024-02-29T20:58:16.387Z,7.30
2024-02-29T21:00:44.774Z,7.20
2024-02-29T21:03:12.995Z,7.20
2024-02-29T21:05:41.281Z,7.10
2024-02-29T21:08:09.523Z,7.10
2024-02-29T21:10:37.816Z,7.10
2024-02-29T21:13:07.552Z,7.00
2024-02-29T21:15:35.677Z,7.00
2024-02-29T21:18:04.533Z,7.00
2024-02-29T21:20:33.271Z,6.90
2024-02-29T21:23:01.578Z,6.90
2024-02-29T21:25:30.445Z,6.80
2024-02-29T21:27:58.987Z,6.80
2024-02-29T21:30:28.555Z,6.80
2024-02-29T21:32:56.775Z,6.70
2024-02-29T21:35:25.080Z,6.70
2024-02-29T21:37:53.481Z,6.70
2024-02-29T21:40:21.669Z,6.60
2024-02-29T21:42:51.918Z,6.60
2024-02-29T21:45:21.212Z,6.60
2024-02-29T21:47:50.887Z,6.50
2024-02-29T21:50:19.142Z,6.50
2024-02-29T21:52:47.237Z,6.50
2024-02-29T21:55:17.136Z,6.40
2024-02-29T21:57:47.005Z,6.40
2024-02-29T22:00:16.367Z,6.40
2024-02-29T22:02:44.907Z,6.30
2024-02-29T22:05:14.462Z,6.30
2024-02-29T22:07:43.004Z,6.30
2024-02-29T22:10:11.791Z,6.30
2024-02-29T22:12:40.241Z,6.30
2024-02-29T22:15:09.770Z,6.30
2024-02-29T22:17:38.130Z,6.20
2024-02-29T22:20:09.117Z,6.20
2024-02-29T22:22:38.794Z,6.20
2024-02-29T22:25:07.731Z,6.20
2024-02-29T22:27:35.911Z,6.20
2024-02-29T22:30:04.594Z,6.20
2024-02-29T22:32:33.153Z,6.10
2024-02-29T22:35:01.996Z,6.20
2024-02-29T22:37:30.464Z,6.10
2024-02-29T22:40:00.164Z,6.10
2024-02-29T22:42:28.383Z,6.10
2024-02-29T22:44:56.438Z,6.10
2024-02-29T22:47:24.876Z,6.10
2024-02-29T22:49:53.017Z,6.10
2024-02-29T22:52:21.304Z,6.10
2024-02-29T22:54:49.523Z,6.00
2024-02-29T22:57:19.151Z,6.00
2024-02-29T22:59:47.266Z,6.00
2024-02-29T23:02:15.501Z,6.00
2024-02-29T23:04:44.373Z,6.00
2024-02-29T23:07:12.612Z,6.00
2024-02-29T23:09:40.775Z,6.00
2024-02-29T23:12:09.453Z,6.00
2024-02-29T23:14:39.013Z,6.00
2024-02-29T23:17:07.133Z,6.00
2024-02-29T23:19:35.231Z,5.90
2024-02-29T23:22:03.300Z,5.90
2024-02-29T23:24:31.487Z,5.90
2024-02-29T23:26:59.631Z,5.90
2024-02-29T23:29:27.784Z,5.90
2024-02-29T23:31:59.026Z,5.90
2024-02-29T23:34:27.361Z,5.90
2024-02-29T23:36:55.667Z,5.90
2024-02-29T23:39:23.858Z,5.90
2024-02-29T23:41:51.950Z,5.90
2024-02-29T23:44:20.263Z,5.80
2024-02-29T23:46:48.395Z,5.80
2024-02-29T23:49:18.685Z,5.80
2024-02-29T23:51:47.047Z,5.80
2024-02-29T23:54:15.550Z,5.90
2024-02-29T23:56:43.637Z,5.90
2024-02-29T23:59:12.017Z,5.80
